sensor_id;sensor_type;location;lat;lon;timestamp;P1;durP1;ratioP1;P2;durP2;ratioP2
51286;SDS011;37364;46.974;18.916;2023-01-16T00:01:42;47.35;;;31.90;;
51286;SDS011;37364;46.974;18.916;2023-01-16T00:04:16;43.15;;;29.75;;
51286;SDS011;37364;46.974;18.916;2023-01-16T00:06:47;45.17;;;30.00;;
51286;SDS011;37364;46.974;18.916;2023-01-16T00:09:20;45.75;;;30.65;;
51286;SDS011;37364;46.974;18.916;2023-01-16T00:11:52;40.55;;;29.92;;
51286;SDS011;37364;46.974;18.916;2023-01-16T00:14:23;53.80;;;29.05;;
51286;SDS011;37364;46.974;18.916;2023-01-16T00:16:58;43.38;;;27.85;;
51286;SDS011;37364;46.974;18.916;2023-01-16T00:19:53;42.45;;;29.35;;
51286;SDS011;37364;46.974;18.916;2023-01-16T00:22:40;39.20;;;27.10;;
51286;SDS011;37364;46.974;18.916;2023-01-16T00:28:17;45.78;;;28.05;;
51286;SDS011;37364;46.974;18.916;2023-01-16T00:30:51;41.90;;;29.40;;
51286;SDS011;37364;46.974;18.916;2023-01-16T00:33:40;40.35;;;29.23;;
51286;SDS011;37364;46.974;18.916;2023-01-16T00:36:13;41.33;;;29.23;;
51286;SDS011;37364;46.974;18.916;2023-01-16T00:38:43;44.05;;;29.38;;
51286;SDS011;37364;46.974;18.916;2023-01-16T00:41:14;41.60;;;29.10;;
51286;SDS011;37364;46.974;18.916;2023-01-16T00:43:47;39.90;;;28.50;;
51286;SDS011;37364;46.974;18.916;2023-01-16T00:46:23;43.78;;;29.25;;
51286;SDS011;37364;46.974;18.916;2023-01-16T00:48:56;47.08;;;30.60;;
51286;SDS011;37364;46.974;18.916;2023-01-16T00:51:34;41.45;;;29.10;;
51286;SDS011;37364;46.974;18.916;2023-01-16T00:54:05;42.25;;;27.52;;
51286;SDS011;37364;46.974;18.916;2023-01-16T00:56:35;43.20;;;28.88;;
51286;SDS011;37364;46.974;18.916;2023-01-16T00:59:10;45.67;;;29.57;;
51286;SDS011;37364;46.974;18.916;2023-01-16T01:01:41;42.38;;;27.25;;
51286;SDS011;37364;46.974;18.916;2023-01-16T01:04:11;43.42;;;27.75;;
51286;SDS011;37364;46.974;18.916;2023-01-16T01:06:47;44.70;;;28.30;;
51286;SDS011;37364;46.974;18.916;2023-01-16T01:09:19;41.72;;;28.05;;
51286;SDS011;37364;46.974;18.916;2023-01-16T01:11:51;43.85;;;29.15;;
51286;SDS011;37364;46.974;18.916;2023-01-16T01:14:26;44.60;;;30.58;;
51286;SDS011;37364;46.974;18.916;2023-01-16T01:17:07;45.75;;;28.17;;
51286;SDS011;37364;46.974;18.916;2023-01-16T01:19:59;43.13;;;28.30;;
51286;SDS011;37364;46.974;18.916;2023-01-16T01:22:41;48.67;;;28.15;;
51286;SDS011;37364;46.974;18.916;2023-01-16T01:25:19;42.40;;;27.58;;
51286;SDS011;37364;46.974;18.916;2023-01-16T01:28:07;39.88;;;27.45;;
51286;SDS011;37364;46.974;18.916;2023-01-16T01:30:45;35.28;;;26.10;;
51286;SDS011;37364;46.974;18.916;2023-01-16T01:33:17;38.97;;;25.73;;
51286;SDS011;37364;46.974;18.916;2023-01-16T01:35:47;39.70;;;27.35;;
51286;SDS011;37364;46.974;18.916;2023-01-16T01:38:19;36.90;;;25.10;;
51286;SDS011;37364;46.974;18.916;2023-01-16T01:40:54;42.25;;;27.65;;
51286;SDS011;37364;46.974;18.916;2023-01-16T01:43:39;38.08;;;28.17;;
51286;SDS011;37364;46.974;18.916;2023-01-16T01:46:16;38.80;;;26.10;;
51286;SDS011;37364;46.974;18.916;2023-01-16T01:48:53;36.60;;;24.77;;
51286;SDS011;37364;46.974;18.916;2023-01-16T01:51:27;36.08;;;25.02;;
51286;SDS011;37364;46.974;18.916;2023-01-16T01:54:05;35.95;;;25.23;;
51286;SDS011;37364;46.974;18.916;2023-01-16T01:56:39;38.00;;;26.73;;
51286;SDS011;37364;46.974;18.916;2023-01-16T01:59:18;37.58;;;23.77;;
51286;SDS011;37364;46.974;18.916;2023-01-16T02:01:59;32.65;;;24.35;;
51286;SDS011;37364;46.974;18.916;2023-01-16T02:05:09;35.08;;;22.30;;
51286;SDS011;37364;46.974;18.916;2023-01-16T02:07:48;34.45;;;25.08;;
51286;SDS011;37364;46.974;18.916;2023-01-16T02:14:08;30.27;;;21.65;;
51286;SDS011;37364;46.974;18.916;2023-01-16T02:16:59;30.83;;;19.70;;
51286;SDS011;37364;46.974;18.916;2023-01-16T02:20:14;30.25;;;20.38;;
51286;SDS011;37364;46.974;18.916;2023-01-16T02:30:12;29.92;;;18.80;;
51286;SDS011;37364;46.974;18.916;2023-01-16T02:33:14;28.88;;;18.58;;
51286;SDS011;37364;46.974;18.916;2023-01-16T02:36:02;26.13;;;18.15;;
51286;SDS011;37364;46.974;18.916;2023-01-16T02:38:42;23.45;;;17.58;;
51286;SDS011;37364;46.974;18.916;2023-01-16T02:41:24;28.75;;;17.92;;
51286;SDS011;37364;46.974;18.916;2023-01-16T02:44:10;25.02;;;17.92;;
51286;SDS011;37364;46.974;18.916;2023-01-16T02:47:06;29.13;;;18.63;;
51286;SDS011;37364;46.974;18.916;2023-01-16T02:49:51;31.83;;;19.25;;
51286;SDS011;37364;46.974;18.916;2023-01-16T02:52:33;26.55;;;19.27;;
51286;SDS011;37364;46.974;18.916;2023-01-16T02:55:12;27.80;;;19.10;;
51286;SDS011;37364;46.974;18.916;2023-01-16T02:57:51;26.17;;;19.67;;
51286;SDS011;37364;46.974;18.916;2023-01-16T03:00:30;24.25;;;18.05;;
51286;SDS011;37364;46.974;18.916;2023-01-16T03:03:04;28.73;;;21.08;;
51286;SDS011;37364;46.974;18.916;2023-01-16T03:05:42;27.25;;;19.40;;
51286;SDS011;37364;46.974;18.916;2023-01-16T03:08:25;26.05;;;18.77;;
51286;SDS011;37364;46.974;18.916;2023-01-16T03:11:12;25.92;;;18.27;;
51286;SDS011;37364;46.974;18.916;2023-01-16T03:16:50;28.15;;;20.60;;
51286;SDS011;37364;46.974;18.916;2023-01-16T03:19:38;42.30;;;22.48;;
51286;SDS011;37364;46.974;18.916;2023-01-16T03:22:21;38.63;;;22.33;;
51286;SDS011;37364;46.974;18.916;2023-01-16T03:25:09;30.40;;;20.52;;
51286;SDS011;37364;46.974;18.916;2023-01-16T03:27:50;32.08;;;19.27;;
51286;SDS011;37364;46.974;18.916;2023-01-16T03:30:28;25.30;;;18.17;;
51286;SDS011;37364;46.974;18.916;2023-01-16T03:33:09;27.37;;;20.10;;
51286;SDS011;37364;46.974;18.916;2023-01-16T03:35:48;29.17;;;21.02;;
51286;SDS011;37364;46.974;18.916;2023-01-16T03:38:29;32.70;;;21.73;;
51286;SDS011;37364;46.974;18.916;2023-01-16T03:44:18;33.28;;;21.70;;
51286;SDS011;37364;46.974;18.916;2023-01-16T03:47:22;36.00;;;24.42;;
51286;SDS011;37364;46.974;18.916;2023-01-16T03:50:21;35.40;;;23.27;;
51286;SDS011;37364;46.974;18.916;2023-01-16T03:53:10;30.77;;;23.65;;
51286;SDS011;37364;46.974;18.916;2023-01-16T03:59:26;30.27;;;21.27;;
51286;SDS011;37364;46.974;18.916;2023-01-16T04:02:30;24.70;;;20.10;;
51286;SDS011;37364;46.974;18.916;2023-01-16T04:05:36;29.80;;;20.48;;
51286;SDS011;37364;46.974;18.916;2023-01-16T04:08:46;31.17;;;20.77;;
51286;SDS011;37364;46.974;18.916;2023-01-16T04:11:56;28.65;;;21.83;;
51286;SDS011;37364;46.974;18.916;2023-01-16T04:17:44;33.15;;;21.60;;
51286;SDS011;37364;46.974;18.916;2023-01-16T04:20:30;25.90;;;21.58;;
51286;SDS011;37364;46.974;18.916;2023-01-16T04:23:46;28.48;;;21.63;;
51286;SDS011;37364;46.974;18.916;2023-01-16T04:27:04;28.92;;;21.20;;
51286;SDS011;37364;46.974;18.916;2023-01-16T04:29:56;28.98;;;22.33;;
51286;SDS011;37364;46.974;18.916;2023-01-16T04:33:03;30.17;;;22.13;;
51286;SDS011;37364;46.974;18.916;2023-01-16T04:35:59;30.30;;;23.08;;
51286;SDS011;37364;46.974;18.916;2023-01-16T04:39:03;37.78;;;24.02;;
51286;SDS011;37364;46.974;18.916;2023-01-16T04:42:09;33.22;;;21.55;;
51286;SDS011;37364;46.974;18.916;2023-01-16T04:45:27;33.17;;;22.75;;
51286;SDS011;37364;46.974;18.916;2023-01-16T04:48:19;34.15;;;23.85;;
51286;SDS011;37364;46.974;18.916;2023-01-16T04:51:25;29.45;;;22.83;;
51286;SDS011;37364;46.974;18.916;2023-01-16T04:54:13;30.15;;;21.83;;
51286;SDS011;37364;46.974;18.916;2023-01-16T04:56:51;30.60;;;22.38;;
51286;SDS011;37364;46.974;18.916;2023-01-16T05:00:08;30.17;;;22.20;;
51286;SDS011;37364;46.974;18.916;2023-01-16T05:03:01;30.95;;;22.45;;
51286;SDS011;37364;46.974;18.916;2023-01-16T05:05:40;31.90;;;24.95;;
51286;SDS011;37364;46.974;18.916;2023-01-16T05:08:27;31.52;;;23.40;;
51286;SDS011;37364;46.974;18.916;2023-01-16T05:11:07;36.40;;;23.08;;
51286;SDS011;37364;46.974;18.916;2023-01-16T05:13:51;48.40;;;23.90;;
51286;SDS011;37364;46.974;18.916;2023-01-16T05:16:47;43.55;;;23.75;;
51286;SDS011;37364;46.974;18.916;2023-01-16T05:19:46;37.30;;;23.77;;
51286;SDS011;37364;46.974;18.916;2023-01-16T05:22:23;33.60;;;23.58;;
51286;SDS011;37364;46.974;18.916;2023-01-16T05:28:10;32.55;;;23.33;;
51286;SDS011;37364;46.974;18.916;2023-01-16T05:30:49;37.22;;;24.42;;
51286;SDS011;37364;46.974;18.916;2023-01-16T05:33:41;32.47;;;24.08;;
51286;SDS011;37364;46.974;18.916;2023-01-16T05:36:27;28.42;;;22.95;;
51286;SDS011;37364;46.974;18.916;2023-01-16T05:42:25;34.03;;;24.25;;
51286;SDS011;37364;46.974;18.916;2023-01-16T05:45:16;33.00;;;24.95;;
51286;SDS011;37364;46.974;18.916;2023-01-16T05:47:48;38.25;;;27.33;;
51286;SDS011;37364;46.974;18.916;2023-01-16T05:50:44;38.13;;;25.60;;
51286;SDS011;37364;46.974;18.916;2023-01-16T05:53:34;34.70;;;25.00;;
51286;SDS011;37364;46.974;18.916;2023-01-16T05:56:38;36.72;;;28.33;;
51286;SDS011;37364;46.974;18.916;2023-01-16T05:59:35;41.55;;;28.20;;
51286;SDS011;37364;46.974;18.916;2023-01-16T06:02:18;36.38;;;26.77;;
51286;SDS011;37364;46.974;18.916;2023-01-16T06:05:02;45.70;;;30.42;;
51286;SDS011;37364;46.974;18.916;2023-01-16T06:08:05;48.15;;;33.00;;
51286;SDS011;37364;46.974;18.916;2023-01-16T06:10:49;47.40;;;32.50;;
51286;SDS011;37364;46.974;18.916;2023-01-16T06:13:42;47.97;;;33.65;;
51286;SDS011;37364;46.974;18.916;2023-01-16T06:16:28;70.88;;;45.03;;
51286;SDS011;37364;46.974;18.916;2023-01-16T06:19:16;88.35;;;51.25;;
51286;SDS011;37364;46.974;18.916;2023-01-16T06:21:50;67.40;;;42.63;;
51286;SDS011;37364;46.974;18.916;2023-01-16T06:24:31;65.05;;;40.67;;
51286;SDS011;37364;46.974;18.916;2023-01-16T06:30:06;59.88;;;38.20;;
51286;SDS011;37364;46.974;18.916;2023-01-16T06:33:09;57.47;;;38.92;;
51286;SDS011;37364;46.974;18.916;2023-01-16T06:35:42;60.47;;;39.92;;
51286;SDS011;37364;46.974;18.916;2023-01-16T06:38:28;59.03;;;39.42;;
51286;SDS011;37364;46.974;18.916;2023-01-16T06:41:20;54.03;;;35.78;;
51286;SDS011;37364;46.974;18.916;2023-01-16T06:44:01;54.67;;;37.10;;
51286;SDS011;37364;46.974;18.916;2023-01-16T06:46:42;54.80;;;36.47;;
51286;SDS011;37364;46.974;18.916;2023-01-16T06:49:18;57.50;;;39.00;;
51286;SDS011;37364;46.974;18.916;2023-01-16T06:51:55;59.55;;;39.42;;
51286;SDS011;37364;46.974;18.916;2023-01-16T06:54:33;66.55;;;41.70;;
51286;SDS011;37364;46.974;18.916;2023-01-16T06:57:16;66.72;;;44.13;;
51286;SDS011;37364;46.974;18.916;2023-01-16T07:00:01;78.55;;;49.17;;
51286;SDS011;37364;46.974;18.916;2023-01-16T07:02:53;71.45;;;45.55;;
51286;SDS011;37364;46.974;18.916;2023-01-16T07:05:34;74.35;;;48.70;;
51286;SDS011;37364;46.974;18.916;2023-01-16T07:08:07;80.43;;;45.95;;
51286;SDS011;37364;46.974;18.916;2023-01-16T07:10:47;67.55;;;42.60;;
51286;SDS011;37364;46.974;18.916;2023-01-16T07:13:23;67.22;;;43.25;;
51286;SDS011;37364;46.974;18.916;2023-01-16T07:15:55;64.68;;;44.35;;
51286;SDS011;37364;46.974;18.916;2023-01-16T07:18:41;70.20;;;45.42;;
51286;SDS011;37364;46.974;18.916;2023-01-16T07:21:41;90.75;;;54.38;;
51286;SDS011;37364;46.974;18.916;2023-01-16T07:24:30;104.65;;;62.05;;
51286;SDS011;37364;46.974;18.916;2023-01-16T07:27:07;108.07;;;66.13;;
51286;SDS011;37364;46.974;18.916;2023-01-16T07:29:50;105.97;;;64.70;;
51286;SDS011;37364;46.974;18.916;2023-01-16T07:32:27;107.75;;;65.35;;
51286;SDS011;37364;46.974;18.916;2023-01-16T07:35:05;86.35;;;55.88;;
51286;SDS011;37364;46.974;18.916;2023-01-16T07:37:40;89.80;;;54.90;;
51286;SDS011;37364;46.974;18.916;2023-01-16T07:40:15;93.90;;;57.63;;
51286;SDS011;37364;46.974;18.916;2023-01-16T07:42:45;108.60;;;60.83;;
51286;SDS011;37364;46.974;18.916;2023-01-16T07:45:18;112.07;;;63.63;;
51286;SDS011;37364;46.974;18.916;2023-01-16T07:47:49;103.97;;;63.42;;
51286;SDS011;37364;46.974;18.916;2023-01-16T07:50:27;108.18;;;65.03;;
51286;SDS011;37364;46.974;18.916;2023-01-16T07:53:05;112.70;;;68.43;;
51286;SDS011;37364;46.974;18.916;2023-01-16T07:55:41;111.13;;;65.68;;
51286;SDS011;37364;46.974;18.916;2023-01-16T07:58:17;115.05;;;68.30;;
51286;SDS011;37364;46.974;18.916;2023-01-16T08:01:02;116.68;;;67.53;;
51286;SDS011;37364;46.974;18.916;2023-01-16T08:03:34;106.55;;;64.95;;
51286;SDS011;37364;46.974;18.916;2023-01-16T08:06:08;116.22;;;66.60;;
51286;SDS011;37364;46.974;18.916;2023-01-16T08:08:41;111.30;;;65.32;;
51286;SDS011;37364;46.974;18.916;2023-01-16T08:11:11;112.60;;;65.45;;
51286;SDS011;37364;46.974;18.916;2023-01-16T08:13:54;104.82;;;65.22;;
51286;SDS011;37364;46.974;18.916;2023-01-16T08:16:33;120.82;;;71.35;;
51286;SDS011;37364;46.974;18.916;2023-01-16T08:19:05;126.22;;;75.70;;
51286;SDS011;37364;46.974;18.916;2023-01-16T08:21:38;128.60;;;70.65;;
51286;SDS011;37364;46.974;18.916;2023-01-16T08:24:11;130.90;;;74.30;;
51286;SDS011;37364;46.974;18.916;2023-01-16T08:26:44;129.20;;;77.93;;
51286;SDS011;37364;46.974;18.916;2023-01-16T08:29:17;124.63;;;74.18;;
51286;SDS011;37364;46.974;18.916;2023-01-16T08:31:57;133.05;;;77.72;;
51286;SDS011;37364;46.974;18.916;2023-01-16T08:34:29;123.93;;;75.22;;
51286;SDS011;37364;46.974;18.916;2023-01-16T08:36:59;119.95;;;74.20;;
51286;SDS011;37364;46.974;18.916;2023-01-16T08:39:33;134.95;;;78.38;;
51286;SDS011;37364;46.974;18.916;2023-01-16T08:42:05;131.63;;;76.65;;
51286;SDS011;37364;46.974;18.916;2023-01-16T08:44:48;118.03;;;72.43;;
51286;SDS011;37364;46.974;18.916;2023-01-16T08:47:33;126.60;;;79.53;;
51286;SDS011;37364;46.974;18.916;2023-01-16T08:50:20;131.65;;;75.50;;
51286;SDS011;37364;46.974;18.916;2023-01-16T08:53:04;113.15;;;71.13;;
51286;SDS011;37364;46.974;18.916;2023-01-16T08:55:35;124.22;;;72.95;;
51286;SDS011;37364;46.974;18.916;2023-01-16T08:58:07;111.05;;;69.43;;
51286;SDS011;37364;46.974;18.916;2023-01-16T09:00:38;104.85;;;66.38;;
51286;SDS011;37364;46.974;18.916;2023-01-16T09:03:12;101.97;;;66.38;;
51286;SDS011;37364;46.974;18.916;2023-01-16T09:05:44;108.78;;;67.90;;
51286;SDS011;37364;46.974;18.916;2023-01-16T09:08:15;107.68;;;71.30;;
51286;SDS011;37364;46.974;18.916;2023-01-16T09:10:52;117.15;;;68.18;;
51286;SDS011;37364;46.974;18.916;2023-01-16T09:13:36;109.63;;;66.13;;
51286;SDS011;37364;46.974;18.916;2023-01-16T09:16:29;105.78;;;64.15;;
51286;SDS011;37364;46.974;18.916;2023-01-16T09:19:03;114.50;;;67.70;;
51286;SDS011;37364;46.974;18.916;2023-01-16T09:21:35;105.63;;;65.75;;
51286;SDS011;37364;46.974;18.916;2023-01-16T09:24:09;116.82;;;68.68;;
51286;SDS011;37364;46.974;18.916;2023-01-16T09:26:43;116.63;;;75.25;;
51286;SDS011;37364;46.974;18.916;2023-01-16T09:29:17;113.40;;;69.00;;
51286;SDS011;37364;46.974;18.916;2023-01-16T09:31:51;103.25;;;66.30;;
51286;SDS011;37364;46.974;18.916;2023-01-16T09:34:28;113.53;;;68.50;;
51286;SDS011;37364;46.974;18.916;2023-01-16T09:36:58;105.13;;;63.83;;
51286;SDS011;37364;46.974;18.916;2023-01-16T09:39:29;111.10;;;68.72;;
51286;SDS011;37364;46.974;18.916;2023-01-16T09:42:06;138.52;;;74.18;;
51286;SDS011;37364;46.974;18.916;2023-01-16T09:45:07;122.72;;;69.82;;
51286;SDS011;37364;46.974;18.916;2023-01-16T09:47:40;114.13;;;70.05;;
51286;SDS011;37364;46.974;18.916;2023-01-16T09:50:24;123.65;;;72.78;;
51286;SDS011;37364;46.974;18.916;2023-01-16T09:53:02;114.35;;;72.00;;
51286;SDS011;37364;46.974;18.916;2023-01-16T09:55:54;135.20;;;75.65;;
51286;SDS011;37364;46.974;18.916;2023-01-16T09:58:43;161.48;;;89.03;;
51286;SDS011;37364;46.974;18.916;2023-01-16T10:01:22;121.03;;;71.47;;
51286;SDS011;37364;46.974;18.916;2023-01-16T10:03:57;113.82;;;69.90;;
51286;SDS011;37364;46.974;18.916;2023-01-16T10:06:50;116.65;;;71.88;;
51286;SDS011;37364;46.974;18.916;2023-01-16T10:09:31;114.72;;;69.32;;
51286;SDS011;37364;46.974;18.916;2023-01-16T10:12:11;119.80;;;67.22;;
51286;SDS011;37364;46.974;18.916;2023-01-16T10:14:47;103.43;;;66.70;;
51286;SDS011;37364;46.974;18.916;2023-01-16T10:17:31;110.50;;;66.78;;
51286;SDS011;37364;46.974;18.916;2023-01-16T10:20:17;111.60;;;67.85;;
51286;SDS011;37364;46.974;18.916;2023-01-16T10:23:29;110.03;;;68.88;;
51286;SDS011;37364;46.974;18.916;2023-01-16T10:26:08;108.07;;;66.55;;
51286;SDS011;37364;46.974;18.916;2023-01-16T10:28:48;111.97;;;70.88;;
51286;SDS011;37364;46.974;18.916;2023-01-16T10:31:34;108.32;;;65.00;;
51286;SDS011;37364;46.974;18.916;2023-01-16T10:34:14;112.13;;;65.85;;
51286;SDS011;37364;46.974;18.916;2023-01-16T10:36:56;112.43;;;64.47;;
51286;SDS011;37364;46.974;18.916;2023-01-16T10:39:35;113.97;;;67.55;;
51286;SDS011;37364;46.974;18.916;2023-01-16T10:42:11;106.53;;;65.05;;
51286;SDS011;37364;46.974;18.916;2023-01-16T10:45:12;114.63;;;64.65;;
51286;SDS011;37364;46.974;18.916;2023-01-16T10:48:06;108.07;;;65.22;;
51286;SDS011;37364;46.974;18.916;2023-01-16T10:51:04;107.82;;;65.25;;
51286;SDS011;37364;46.974;18.916;2023-01-16T10:53:36;115.18;;;66.28;;
51286;SDS011;37364;46.974;18.916;2023-01-16T10:56:10;107.80;;;64.57;;
51286;SDS011;37364;46.974;18.916;2023-01-16T10:58:44;116.03;;;63.63;;
51286;SDS011;37364;46.974;18.916;2023-01-16T11:01:21;103.15;;;64.32;;
51286;SDS011;37364;46.974;18.916;2023-01-16T11:03:55;114.03;;;64.05;;
51286;SDS011;37364;46.974;18.916;2023-01-16T11:06:29;109.30;;;64.95;;
51286;SDS011;37364;46.974;18.916;2023-01-16T11:09:14;102.15;;;61.85;;
51286;SDS011;37364;46.974;18.916;2023-01-16T11:11:52;106.90;;;62.92;;
51286;SDS011;37364;46.974;18.916;2023-01-16T11:14:40;102.72;;;62.33;;
51286;SDS011;37364;46.974;18.916;2023-01-16T11:17:27;97.55;;;60.20;;
51286;SDS011;37364;46.974;18.916;2023-01-16T11:20:25;94.20;;;58.67;;
51286;SDS011;37364;46.974;18.916;2023-01-16T11:23:03;99.10;;;58.40;;
51286;SDS011;37364;46.974;18.916;2023-01-16T11:25:45;96.72;;;60.10;;
51286;SDS011;37364;46.974;18.916;2023-01-16T11:28:26;108.80;;;63.67;;
51286;SDS011;37364;46.974;18.916;2023-01-16T11:31:04;100.00;;;62.92;;
51286;SDS011;37364;46.974;18.916;2023-01-16T11:33:44;103.10;;;63.20;;
51286;SDS011;37364;46.974;18.916;2023-01-16T11:36:23;99.63;;;60.15;;
51286;SDS011;37364;46.974;18.916;2023-01-16T11:39:03;105.70;;;65.63;;
51286;SDS011;37364;46.974;18.916;2023-01-16T11:41:36;101.57;;;64.10;;
51286;SDS011;37364;46.974;18.916;2023-01-16T11:44:15;109.10;;;63.72;;
51286;SDS011;37364;46.974;18.916;2023-01-16T11:47:26;93.22;;;58.60;;
51286;SDS011;37364;46.974;18.916;2023-01-16T11:50:20;104.50;;;62.17;;
51286;SDS011;37364;46.974;18.916;2023-01-16T11:53:19;100.53;;;61.10;;
51286;SDS011;37364;46.974;18.916;2023-01-16T11:55:57;102.60;;;61.65;;
51286;SDS011;37364;46.974;18.916;2023-01-16T11:58:52;105.35;;;64.25;;
51286;SDS011;37364;46.974;18.916;2023-01-16T12:02:10;119.68;;;67.40;;
51286;SDS011;37364;46.974;18.916;2023-01-16T12:04:53;105.60;;;63.58;;
51286;SDS011;37364;46.974;18.916;2023-01-16T12:08:03;107.35;;;62.60;;
51286;SDS011;37364;46.974;18.916;2023-01-16T12:10:57;153.57;;;93.38;;
51286;SDS011;37364;46.974;18.916;2023-01-16T12:13:49;134.43;;;80.00;;
51286;SDS011;37364;46.974;18.916;2023-01-16T12:16:56;120.22;;;68.53;;
51286;SDS011;37364;46.974;18.916;2023-01-16T12:19:51;123.70;;;72.70;;
51286;SDS011;37364;46.974;18.916;2023-01-16T12:22:37;102.78;;;59.60;;
51286;SDS011;37364;46.974;18.916;2023-01-16T12:25:30;93.63;;;53.80;;
51286;SDS011;37364;46.974;18.916;2023-01-16T12:28:13;86.78;;;53.55;;
51286;SDS011;37364;46.974;18.916;2023-01-16T12:34:20;85.78;;;49.90;;
51286;SDS011;37364;46.974;18.916;2023-01-16T12:37:28;77.25;;;45.03;;
51286;SDS011;37364;46.974;18.916;2023-01-16T12:40:20;77.35;;;45.58;;
51286;SDS011;37364;46.974;18.916;2023-01-16T12:43:09;77.45;;;47.67;;
51286;SDS011;37364;46.974;18.916;2023-01-16T12:46:03;90.13;;;47.75;;
51286;SDS011;37364;46.974;18.916;2023-01-16T12:48:49;78.82;;;46.45;;
51286;SDS011;37364;46.974;18.916;2023-01-16T12:51:46;85.53;;;48.38;;
51286;SDS011;37364;46.974;18.916;2023-01-16T12:55:08;82.65;;;47.75;;
51286;SDS011;37364;46.974;18.916;2023-01-16T12:58:38;65.85;;;43.92;;
51286;SDS011;37364;46.974;18.916;2023-01-16T13:01:22;70.20;;;43.75;;
51286;SDS011;37364;46.974;18.916;2023-01-16T13:04:06;71.13;;;45.03;;
51286;SDS011;37364;46.974;18.916;2023-01-16T13:06:57;86.78;;;45.83;;
51286;SDS011;37364;46.974;18.916;2023-01-16T13:09:53;76.78;;;47.47;;
51286;SDS011;37364;46.974;18.916;2023-01-16T13:13:17;73.75;;;45.78;;
51286;SDS011;37364;46.974;18.916;2023-01-16T13:16:07;72.28;;;45.58;;
51286;SDS011;37364;46.974;18.916;2023-01-16T13:19:10;82.45;;;46.67;;
51286;SDS011;37364;46.974;18.916;2023-01-16T13:22:10;74.75;;;46.22;;
51286;SDS011;37364;46.974;18.916;2023-01-16T13:25:09;78.13;;;48.72;;
51286;SDS011;37364;46.974;18.916;2023-01-16T13:28:12;81.03;;;47.50;;
51286;SDS011;37364;46.974;18.916;2023-01-16T13:31:07;72.72;;;45.33;;
51286;SDS011;37364;46.974;18.916;2023-01-16T13:33:53;79.53;;;46.40;;
51286;SDS011;37364;46.974;18.916;2023-01-16T13:48:48;82.22;;;49.55;;
51286;SDS011;37364;46.974;18.916;2023-01-16T13:51:39;74.93;;;44.88;;
51286;SDS011;37364;46.974;18.916;2023-01-16T13:54:13;69.55;;;42.85;;
51286;SDS011;37364;46.974;18.916;2023-01-16T13:56:55;75.95;;;44.17;;
51286;SDS011;37364;46.974;18.916;2023-01-16T13:59:29;70.80;;;43.10;;
51286;SDS011;37364;46.974;18.916;2023-01-16T14:11:36;66.30;;;38.22;;
51286;SDS011;37364;46.974;18.916;2023-01-16T14:14:22;73.35;;;45.05;;
51286;SDS011;37364;46.974;18.916;2023-01-16T14:17:13;73.47;;;47.30;;
51286;SDS011;37364;46.974;18.916;2023-01-16T14:19:51;66.85;;;41.90;;
51286;SDS011;37364;46.974;18.916;2023-01-16T14:22:32;73.82;;;41.90;;
51286;SDS011;37364;46.974;18.916;2023-01-16T14:25:19;71.35;;;47.38;;
51286;SDS011;37364;46.974;18.916;2023-01-16T14:27:54;76.72;;;46.40;;
51286;SDS011;37364;46.974;18.916;2023-01-16T14:30:29;78.43;;;44.50;;
51286;SDS011;37364;46.974;18.916;2023-01-16T14:33:03;69.32;;;41.97;;
51286;SDS011;37364;46.974;18.916;2023-01-16T14:35:40;70.85;;;42.47;;
51286;SDS011;37364;46.974;18.916;2023-01-16T14:38:18;65.35;;;40.53;;
51286;SDS011;37364;46.974;18.916;2023-01-16T14:40:53;68.90;;;41.08;;
51286;SDS011;37364;46.974;18.916;2023-01-16T14:47:22;74.57;;;45.92;;
51286;SDS011;37364;46.974;18.916;2023-01-16T14:50:13;74.57;;;43.50;;
51286;SDS011;37364;46.974;18.916;2023-01-16T14:56:10;67.25;;;39.40;;
51286;SDS011;37364;46.974;18.916;2023-01-16T14:58:48;72.82;;;42.15;;
51286;SDS011;37364;46.974;18.916;2023-01-16T15:01:26;73.85;;;40.78;;
51286;SDS011;37364;46.974;18.916;2023-01-16T15:04:13;67.70;;;41.58;;
51286;SDS011;37364;46.974;18.916;2023-01-16T15:09:22;75.68;;;42.42;;
51286;SDS011;37364;46.974;18.916;2023-01-16T15:11:58;76.47;;;47.80;;
51286;SDS011;37364;46.974;18.916;2023-01-16T15:14:29;84.10;;;47.00;;
51286;SDS011;37364;46.974;18.916;2023-01-16T15:17:04;87.80;;;48.42;;
51286;SDS011;37364;46.974;18.916;2023-01-16T15:19:59;87.93;;;51.67;;
51286;SDS011;37364;46.974;18.916;2023-01-16T15:22:57;97.22;;;54.25;;
51286;SDS011;37364;46.974;18.916;2023-01-16T15:28:31;107.90;;;56.17;;
51286;SDS011;37364;46.974;18.916;2023-01-16T15:31:16;107.40;;;55.13;;
51286;SDS011;37364;46.974;18.916;2023-01-16T15:33:57;152.90;;;71.83;;
51286;SDS011;37364;46.974;18.916;2023-01-16T15:36:32;164.77;;;75.10;;
51286;SDS011;37364;46.974;18.916;2023-01-16T15:39:12;195.25;;;84.57;;
51286;SDS011;37364;46.974;18.916;2023-01-16T15:44:37;178.90;;;68.97;;
51286;SDS011;37364;46.974;18.916;2023-01-16T15:47:24;184.45;;;85.60;;
51286;SDS011;37364;46.974;18.916;2023-01-16T15:50:34;168.77;;;65.20;;
51286;SDS011;37364;46.974;18.916;2023-01-16T15:53:17;134.05;;;55.95;;
51286;SDS011;37364;46.974;18.916;2023-01-16T15:55:50;108.85;;;52.03;;
51286;SDS011;37364;46.974;18.916;2023-01-16T15:58:27;110.75;;;54.20;;
51286;SDS011;37364;46.974;18.916;2023-01-16T16:00:59;102.60;;;55.22;;
51286;SDS011;37364;46.974;18.916;2023-01-16T16:03:36;92.13;;;47.13;;
51286;SDS011;37364;46.974;18.916;2023-01-16T16:06:11;85.57;;;47.42;;
51286;SDS011;37364;46.974;18.916;2023-01-16T16:08:44;85.18;;;45.47;;
51286;SDS011;37364;46.974;18.916;2023-01-16T16:14:19;71.50;;;43.30;;
51286;SDS011;37364;46.974;18.916;2023-01-16T16:17:16;73.85;;;42.85;;
51286;SDS011;37364;46.974;18.916;2023-01-16T16:23:09;81.88;;;48.70;;
51286;SDS011;37364;46.974;18.916;2023-01-16T16:25:48;84.78;;;46.25;;
51286;SDS011;37364;46.974;18.916;2023-01-16T16:28:24;82.70;;;47.95;;
51286;SDS011;37364;46.974;18.916;2023-01-16T16:31:04;82.93;;;48.70;;
51286;SDS011;37364;46.974;18.916;2023-01-16T16:33:43;97.00;;;52.47;;
51286;SDS011;37364;46.974;18.916;2023-01-16T16:36:27;79.80;;;49.35;;
51286;SDS011;37364;46.974;18.916;2023-01-16T16:39:03;89.78;;;51.53;;
51286;SDS011;37364;46.974;18.916;2023-01-16T16:44:38;80.88;;;48.35;;
51286;SDS011;37364;46.974;18.916;2023-01-16T16:47:19;86.55;;;49.17;;
51286;SDS011;37364;46.974;18.916;2023-01-16T16:49:53;98.45;;;51.22;;
51286;SDS011;37364;46.974;18.916;2023-01-16T16:52:43;95.15;;;52.72;;
51286;SDS011;37364;46.974;18.916;2023-01-16T16:55:27;93.35;;;53.50;;
51286;SDS011;37364;46.974;18.916;2023-01-16T16:58:02;103.53;;;54.40;;
51286;SDS011;37364;46.974;18.916;2023-01-16T17:00:36;93.88;;;50.33;;
51286;SDS011;37364;46.974;18.916;2023-01-16T17:03:12;93.53;;;50.45;;